sensor_id;sensor_type;location;lat;lon;timestamp;P1;durP1;ratioP1;P2;durP2;ratioP2
10452;SDS011;5274;51.992;8.518;2022-09-09T00:01:01;2.20;;;1.17;;
10452;SDS011;5274;51.992;8.518;2022-09-09T00:06:21;1.52;;;1.15;;
10452;SDS011;5274;51.992;8.518;2022-09-09T00:09:02;2.33;;;1.27;;
10452;SDS011;5274;51.992;8.518;2022-09-09T00:11:46;4.40;;;1.25;;
10452;SDS011;5274;51.992;8.518;2022-09-09T00:17:43;2.55;;;1.13;;
10452;SDS011;5274;51.992;8.518;2022-09-09T00:20:18;2.20;;;1.30;;
10452;SDS011;5274;51.992;8.518;2022-09-09T00:22:54;1.98;;;1.27;;
10452;SDS011;5274;51.992;8.518;2022-09-09T00:25:48;3.30;;;1.27;;
10452;SDS011;5274;51.992;8.518;2022-09-09T00:28:19;1.27;;;1.02;;
10452;SDS011;5274;51.992;8.518;2022-09-09T00:30:48;5.47;;;1.75;;
10452;SDS011;5274;51.992;8.518;2022-09-09T00:33:15;1.92;;;1.20;;
10452;SDS011;5274;51.992;8.518;2022-09-09T00:35:52;5.25;;;1.48;;
10452;SDS011;5274;51.992;8.518;2022-09-09T00:43:38;3.65;;;1.60;;
10452;SDS011;5274;51.992;8.518;2022-09-09T00:46:23;4.10;;;1.60;;
10452;SDS011;5274;51.992;8.518;2022-09-09T00:49:18;4.25;;;1.30;;
10452;SDS011;5274;51.992;8.518;2022-09-09T00:52:31;1.13;;;1.10;;
10452;SDS011;5274;51.992;8.518;2022-09-09T00:55:20;2.22;;;1.33;;
10452;SDS011;5274;51.992;8.518;2022-09-09T00:58:13;3.38;;;1.40;;
10452;SDS011;5274;51.992;8.518;2022-09-09T01:00:41;6.85;;;1.67;;
10452;SDS011;5274;51.992;8.518;2022-09-09T01:03:14;5.18;;;1.92;;
10452;SDS011;5274;51.992;8.518;2022-09-09T01:05:47;3.10;;;1.60;;
10452;SDS011;5274;51.992;8.518;2022-09-09T01:11:25;2.53;;;1.50;;
10452;SDS011;5274;51.992;8.518;2022-09-09T01:14:00;3.03;;;1.60;;
10452;SDS011;5274;51.992;8.518;2022-09-09T01:16:34;3.03;;;1.70;;
10452;SDS011;5274;51.992;8.518;2022-09-09T01:19:00;3.28;;;1.90;;
10452;SDS011;5274;51.992;8.518;2022-09-09T01:24:27;2.75;;;1.90;;
10452;SDS011;5274;51.992;8.518;2022-09-09T01:27:05;3.65;;;1.75;;
10452;SDS011;5274;51.992;8.518;2022-09-09T01:29:31;4.57;;;1.80;;
10452;SDS011;5274;51.992;8.518;2022-09-09T01:31:58;3.70;;;1.85;;
10452;SDS011;5274;51.992;8.518;2022-09-09T01:34:27;5.38;;;2.53;;
10452;SDS011;5274;51.992;8.518;2022-09-09T01:36:57;3.38;;;1.80;;
10452;SDS011;5274;51.992;8.518;2022-09-09T01:39:27;2.25;;;1.63;;
10452;SDS011;5274;51.992;8.518;2022-09-09T01:41:53;4.25;;;1.85;;
10452;SDS011;5274;51.992;8.518;2022-09-09T01:44:20;7.03;;;2.20;;
10452;SDS011;5274;51.992;8.518;2022-09-09T01:46:46;2.58;;;1.40;;
10452;SDS011;5274;51.992;8.518;2022-09-09T01:49:12;9.82;;;1.83;;
10452;SDS011;5274;51.992;8.518;2022-09-09T01:51:38;2.65;;;1.77;;
10452;SDS011;5274;51.992;8.518;2022-09-09T01:54:05;4.00;;;2.10;;
10452;SDS011;5274;51.992;8.518;2022-09-09T02:06:43;2.30;;;1.58;;
10452;SDS011;5274;51.992;8.518;2022-09-09T02:09:12;2.72;;;1.48;;
10452;SDS011;5274;51.992;8.518;2022-09-09T02:11:39;3.50;;;1.63;;
10452;SDS011;5274;51.992;8.518;2022-09-09T02:14:09;3.63;;;1.83;;
10452;SDS011;5274;51.992;8.518;2022-09-09T02:16:40;2.75;;;1.58;;
10452;SDS011;5274;51.992;8.518;2022-09-09T02:19:20;1.58;;;1.45;;
10452;SDS011;5274;51.992;8.518;2022-09-09T02:21:50;3.03;;;1.73;;
10452;SDS011;5274;51.992;8.518;2022-09-09T02:24:18;4.57;;;1.77;;
10452;SDS011;5274;51.992;8.518;2022-09-09T02:26:44;2.47;;;1.58;;
10452;SDS011;5274;51.992;8.518;2022-09-09T02:29:16;4.07;;;1.60;;
10452;SDS011;5274;51.992;8.518;2022-09-09T02:31:45;3.45;;;1.30;;
10452;SDS011;5274;51.992;8.518;2022-09-09T02:34:13;1.60;;;1.50;;
10452;SDS011;5274;51.992;8.518;2022-09-09T02:36:41;2.42;;;1.50;;
10452;SDS011;5274;51.992;8.518;2022-09-09T02:39:10;3.15;;;1.83;;
10452;SDS011;5274;51.992;8.518;2022-09-09T02:41:39;4.60;;;1.73;;
10452;SDS011;5274;51.992;8.518;2022-09-09T02:44:13;3.13;;;1.90;;
10452;SDS011;5274;51.992;8.518;2022-09-09T02:49:33;5.20;;;1.85;;
10452;SDS011;5274;51.992;8.518;2022-09-09T02:52:43;5.60;;;1.80;;
10452;SDS011;5274;51.992;8.518;2022-09-09T02:55:12;5.72;;;1.85;;
10452;SDS011;5274;51.992;8.518;2022-09-09T02:57:49;3.67;;;2.08;;
10452;SDS011;5274;51.992;8.518;2022-09-09T03:00:16;4.60;;;1.58;;
10452;SDS011;5274;51.992;8.518;2022-09-09T03:02:49;2.63;;;1.75;;
10452;SDS011;5274;51.992;8.518;2022-09-09T03:05:15;4.78;;;1.80;;
10452;SDS011;5274;51.992;8.518;2022-09-09T03:07:41;2.58;;;1.70;;
10452;SDS011;5274;51.992;8.518;2022-09-09T03:10:06;3.75;;;1.65;;
10452;SDS011;5274;51.992;8.518;2022-09-09T03:12:33;6.95;;;1.90;;
10452;SDS011;5274;51.992;8.518;2022-09-09T03:14:58;2.97;;;1.48;;
10452;SDS011;5274;51.992;8.518;2022-09-09T03:17:24;5.75;;;1.90;;
10452;SDS011;5274;51.992;8.518;2022-09-09T03:19:49;2.08;;;1.77;;
10452;SDS011;5274;51.992;8.518;2022-09-09T03:22:19;3.47;;;1.70;;
10452;SDS011;5274;51.992;8.518;2022-09-09T03:24:45;3.72;;;1.70;;
10452;SDS011;5274;51.992;8.518;2022-09-09T03:27:11;4.93;;;2.05;;
10452;SDS011;5274;51.992;8.518;2022-09-09T03:29:39;3.20;;;1.70;;
10452;SDS011;5274;51.992;8.518;2022-09-09T03:32:05;2.88;;;1.88;;
10452;SDS011;5274;51.992;8.518;2022-09-09T03:34:30;4.70;;;1.90;;
10452;SDS011;5274;51.992;8.518;2022-09-09T03:36:56;2.95;;;1.80;;
10452;SDS011;5274;51.992;8.518;2022-09-09T03:39:21;4.97;;;2.00;;
10452;SDS011;5274;51.992;8.518;2022-09-09T03:41:47;4.28;;;1.73;;
10452;SDS011;5274;51.992;8.518;2022-09-09T03:44:13;3.63;;;1.60;;
10452;SDS011;5274;51.992;8.518;2022-09-09T03:46:39;2.30;;;1.70;;
10452;SDS011;5274;51.992;8.518;2022-09-09T03:49:05;1.98;;;1.52;;
10452;SDS011;5274;51.992;8.518;2022-09-09T03:51:30;3.65;;;1.60;;
10452;SDS011;5274;51.992;8.518;2022-09-09T03:53:55;2.28;;;1.73;;
10452;SDS011;5274;51.992;8.518;2022-09-09T03:56:23;3.47;;;1.75;;
10452;SDS011;5274;51.992;8.518;2022-09-09T03:58:49;4.55;;;1.90;;
10452;SDS011;5274;51.992;8.518;2022-09-09T04:01:14;3.60;;;1.77;;
10452;SDS011;5274;51.992;8.518;2022-09-09T04:03:42;4.13;;;1.98;;
10452;SDS011;5274;51.992;8.518;2022-09-09T04:06:10;4.65;;;2.15;;
10452;SDS011;5274;51.992;8.518;2022-09-09T04:08:38;4.47;;;1.77;;
10452;SDS011;5274;51.992;8.518;2022-09-09T04:11:04;4.38;;;1.65;;
10452;SDS011;5274;51.992;8.518;2022-09-09T04:13:31;4.20;;;1.67;;
10452;SDS011;5274;51.992;8.518;2022-09-09T04:16:02;4.03;;;1.80;;
10452;SDS011;5274;51.992;8.518;2022-09-09T04:18:28;9.38;;;2.13;;
10452;SDS011;5274;51.992;8.518;2022-09-09T04:20:55;2.35;;;1.50;;
10452;SDS011;5274;51.992;8.518;2022-09-09T04:23:27;2.75;;;1.45;;
10452;SDS011;5274;51.992;8.518;2022-09-09T04:25:57;4.55;;;1.73;;
10452;SDS011;5274;51.992;8.518;2022-09-09T04:28:25;5.63;;;1.90;;
10452;SDS011;5274;51.992;8.518;2022-09-09T04:30:52;1.90;;;1.63;;
10452;SDS011;5274;51.992;8.518;2022-09-09T04:33:18;3.90;;;1.90;;
10452;SDS011;5274;51.992;8.518;2022-09-09T04:35:48;4.15;;;2.15;;
10452;SDS011;5274;51.992;8.518;2022-09-09T04:38:14;7.38;;;2.30;;
10452;SDS011;5274;51.992;8.518;2022-09-09T04:40:46;2.97;;;2.03;;
10452;SDS011;5274;51.992;8.518;2022-09-09T04:43:12;2.22;;;2.03;;
10452;SDS011;5274;51.992;8.518;2022-09-09T04:45:39;5.15;;;2.38;;
10452;SDS011;5274;51.992;8.518;2022-09-09T04:48:05;5.63;;;2.38;;
10452;SDS011;5274;51.992;8.518;2022-09-09T04:50:31;3.92;;;2.05;;
10452;SDS011;5274;51.992;8.518;2022-09-09T04:52:59;4.22;;;2.28;;
10452;SDS011;5274;51.992;8.518;2022-09-09T04:55:26;7.75;;;2.40;;
10452;SDS011;5274;51.992;8.518;2022-09-09T04:57:51;3.42;;;2.28;;
10452;SDS011;5274;51.992;8.518;2022-09-09T05:00:17;5.07;;;2.67;;
10452;SDS011;5274;51.992;8.518;2022-09-09T05:02:43;5.78;;;2.58;;
10452;SDS011;5274;51.992;8.518;2022-09-09T05:05:09;5.93;;;2.50;;
10452;SDS011;5274;51.992;8.518;2022-09-09T05:07:36;4.05;;;2.30;;
10452;SDS011;5274;51.992;8.518;2022-09-09T05:10:02;5.03;;;2.42;;
10452;SDS011;5274;51.992;8.518;2022-09-09T05:12:30;3.42;;;2.10;;
10452;SDS011;5274;51.992;8.518;2022-09-09T05:14:56;6.05;;;2.90;;
10452;SDS011;5274;51.992;8.518;2022-09-09T05:17:22;5.28;;;2.60;;
10452;SDS011;5274;51.992;8.518;2022-09-09T05:19:48;8.93;;;3.15;;
10452;SDS011;5274;51.992;8.518;2022-09-09T05:22:17;4.60;;;2.58;;
10452;SDS011;5274;51.992;8.518;2022-09-09T05:24:45;4.00;;;2.28;;
10452;SDS011;5274;51.992;8.518;2022-09-09T05:27:10;6.82;;;2.63;;
10452;SDS011;5274;51.992;8.518;2022-09-09T05:29:37;5.45;;;2.60;;
10452;SDS011;5274;51.992;8.518;2022-09-09T05:32:03;2.47;;;2.03;;
10452;SDS011;5274;51.992;8.518;2022-09-09T05:34:29;3.80;;;2.08;;
10452;SDS011;5274;51.992;8.518;2022-09-09T05:36:54;5.38;;;2.05;;
10452;SDS011;5274;51.992;8.518;2022-09-09T05:39:20;3.15;;;1.95;;
10452;SDS011;5274;51.992;8.518;2022-09-09T05:41:46;3.78;;;1.92;;
10452;SDS011;5274;51.992;8.518;2022-09-09T05:44:11;5.03;;;2.42;;
10452;SDS011;5274;51.992;8.518;2022-09-09T05:46:38;3.35;;;2.40;;
10452;SDS011;5274;51.992;8.518;2022-09-09T05:49:03;4.55;;;2.20;;
10452;SDS011;5274;51.992;8.518;2022-09-09T05:51:30;1.88;;;1.63;;
10452;SDS011;5274;51.992;8.518;2022-09-09T05:53:56;6.72;;;2.30;;
10452;SDS011;5274;51.992;8.518;2022-09-09T05:56:25;3.80;;;2.28;;
10452;SDS011;5274;51.992;8.518;2022-09-09T05:58:53;4.30;;;2.30;;
10452;SDS011;5274;51.992;8.518;2022-09-09T06:01:20;6.38;;;2.72;;
10452;SDS011;5274;51.992;8.518;2022-09-09T06:03:48;4.85;;;2.80;;
10452;SDS011;5274;51.992;8.518;2022-09-09T06:06:15;7.13;;;2.20;;
10452;SDS011;5274;51.992;8.518;2022-09-09T06:08:43;6.10;;;2.47;;
10452;SDS011;5274;51.992;8.518;2022-09-09T06:11:11;4.07;;;2.30;;
10452;SDS011;5274;51.992;8.518;2022-09-09T06:13:38;3.92;;;2.10;;
10452;SDS011;5274;51.992;8.518;2022-09-09T06:16:14;6.43;;;2.38;;
10452;SDS011;5274;51.992;8.518;2022-09-09T06:18:42;3.05;;;2.58;;
10452;SDS011;5274;51.992;8.518;2022-09-09T06:21:09;5.43;;;2.20;;
10452;SDS011;5274;51.992;8.518;2022-09-09T06:23:40;3.55;;;2.25;;
10452;SDS011;5274;51.992;8.518;2022-09-09T06:26:06;3.63;;;2.25;;
10452;SDS011;5274;51.992;8.518;2022-09-09T06:28:35;2.83;;;2.17;;
10452;SDS011;5274;51.992;8.518;2022-09-09T06:31:03;4.35;;;2.35;;
10452;SDS011;5274;51.992;8.518;2022-09-09T06:33:33;3.28;;;2.10;;
10452;SDS011;5274;51.992;8.518;2022-09-09T06:36:00;4.32;;;2.22;;
10452;SDS011;5274;51.992;8.518;2022-09-09T06:38:27;3.08;;;2.28;;
10452;SDS011;5274;51.992;8.518;2022-09-09T06:40:56;4.68;;;2.40;;
10452;SDS011;5274;51.992;8.518;2022-09-09T06:43:23;4.07;;;2.30;;
10452;SDS011;5274;51.992;8.518;2022-09-09T06:45:58;5.53;;;2.15;;
10452;SDS011;5274;51.992;8.518;2022-09-09T06:48:26;4.80;;;2.10;;
10452;SDS011;5274;51.992;8.518;2022-09-09T06:51:03;4.40;;;2.10;;
10452;SDS011;5274;51.992;8.518;2022-09-09T06:53:29;4.35;;;2.13;;
10452;SDS011;5274;51.992;8.518;2022-09-09T06:55:55;3.08;;;2.05;;
10452;SDS011;5274;51.992;8.518;2022-09-09T06:58:21;3.00;;;1.85;;
10452;SDS011;5274;51.992;8.518;2022-09-09T07:00:49;3.22;;;1.90;;
10452;SDS011;5274;51.992;8.518;2022-09-09T07:03:14;5.05;;;2.15;;
10452;SDS011;5274;51.992;8.518;2022-09-09T07:05:40;5.88;;;2.38;;
10452;SDS011;5274;51.992;8.518;2022-09-09T07:08:05;4.72;;;2.05;;
10452;SDS011;5274;51.992;8.518;2022-09-09T07:10:31;3.90;;;2.03;;
10452;SDS011;5274;51.992;8.518;2022-09-09T07:12:57;3.83;;;2.00;;
10452;SDS011;5274;51.992;8.518;2022-09-09T07:15:22;3.80;;;1.70;;
10452;SDS011;5274;51.992;8.518;2022-09-09T07:17:48;2.05;;;1.63;;
10452;SDS011;5274;51.992;8.518;2022-09-09T07:20:14;3.17;;;1.73;;
10452;SDS011;5274;51.992;8.518;2022-09-09T07:22:40;4.35;;;2.10;;
10452;SDS011;5274;51.992;8.518;2022-09-09T07:25:06;4.25;;;1.83;;
10452;SDS011;5274;51.992;8.518;2022-09-09T07:27:32;7.07;;;2.15;;
10452;SDS011;5274;51.992;8.518;2022-09-09T07:29:58;3.42;;;1.95;;
10452;SDS011;5274;51.992;8.518;2022-09-09T07:32:24;6.45;;;2.00;;
10452;SDS011;5274;51.992;8.518;2022-09-09T07:34:50;3.50;;;2.33;;
10452;SDS011;5274;51.992;8.518;2022-09-09T07:37:16;4.18;;;1.52;;
10452;SDS011;5274;51.992;8.518;2022-09-09T07:39:42;2.35;;;1.90;;
10452;SDS011;5274;51.992;8.518;2022-09-09T07:42:08;4.65;;;1.83;;
10452;SDS011;5274;51.992;8.518;2022-09-09T07:44:36;3.10;;;1.90;;
10452;SDS011;5274;51.992;8.518;2022-09-09T07:47:04;6.07;;;2.08;;
10452;SDS011;5274;51.992;8.518;2022-09-09T07:49:30;5.85;;;2.08;;
10452;SDS011;5274;51.992;8.518;2022-09-09T07:51:57;6.60;;;2.17;;
10452;SDS011;5274;51.992;8.518;2022-09-09T07:54:23;5.20;;;1.67;;
10452;SDS011;5274;51.992;8.518;2022-09-09T07:56:50;3.55;;;1.92;;
10452;SDS011;5274;51.992;8.518;2022-09-09T07:59:16;4.60;;;2.28;;
10452;SDS011;5274;51.992;8.518;2022-09-09T08:01:46;5.43;;;1.90;;
10452;SDS011;5274;51.992;8.518;2022-09-09T08:04:14;4.18;;;1.80;;
10452;SDS011;5274;51.992;8.518;2022-09-09T08:06:48;6.10;;;1.73;;
10452;SDS011;5274;51.992;8.518;2022-09-09T08:09:18;2.30;;;1.52;;
10452;SDS011;5274;51.992;8.518;2022-09-09T08:11:45;3.38;;;1.67;;
10452;SDS011;5274;51.992;8.518;2022-09-09T08:14:12;4.45;;;1.83;;
10452;SDS011;5274;51.992;8.518;2022-09-09T08:16:40;5.90;;;2.28;;
10452;SDS011;5274;51.992;8.518;2022-09-09T08:19:08;3.08;;;1.73;;
10452;SDS011;5274;51.992;8.518;2022-09-09T08:21:35;6.45;;;1.75;;
10452;SDS011;5274;51.992;8.518;2022-09-09T08:24:02;7.15;;;1.77;;
10452;SDS011;5274;51.992;8.518;2022-09-09T08:26:29;4.45;;;1.80;;
10452;SDS011;5274;51.992;8.518;2022-09-09T08:28:57;6.13;;;2.20;;
10452;SDS011;5274;51.992;8.518;2022-09-09T08:31:25;6.63;;;1.83;;
10452;SDS011;5274;51.992;8.518;2022-09-09T08:33:56;5.72;;;1.92;;
10452;SDS011;5274;51.992;8.518;2022-09-09T08:36:24;4.10;;;1.52;;
10452;SDS011;5274;51.992;8.518;2022-09-09T08:38:53;2.97;;;1.23;;
10452;SDS011;5274;51.992;8.518;2022-09-09T08:52:27;3.47;;;1.17;;
10452;SDS011;5274;51.992;8.518;2022-09-09T08:54:56;3.70;;;1.10;;
10452;SDS011;5274;51.992;8.518;2022-09-09T08:57:45;2.70;;;1.10;;
10452;SDS011;5274;51.992;8.518;2022-09-09T09:00:11;2.58;;;1.20;;
10452;SDS011;5274;51.992;8.518;2022-09-09T09:02:54;3.63;;;1.15;;
10452;SDS011;5274;51.992;8.518;2022-09-09T09:05:42;3.00;;;1.25;;
10452;SDS011;5274;51.992;8.518;2022-09-09T09:08:17;4.55;;;1.27;;
10452;SDS011;5274;51.992;8.518;2022-09-09T09:10:51;6.82;;;1.58;;
10452;SDS011;5274;51.992;8.518;2022-09-09T09:13:43;4.43;;;1.38;;
10452;SDS011;5274;51.992;8.518;2022-09-09T09:16:23;3.88;;;1.48;;
10452;SDS011;5274;51.992;8.518;2022-09-09T09:18:57;3.17;;;1.00;;
10452;SDS011;5274;51.992;8.518;2022-09-09T09:24:14;2.13;;;0.95;;
10452;SDS011;5274;51.992;8.518;2022-09-09T09:26:42;2.65;;;1.02;;
10452;SDS011;5274;51.992;8.518;2022-09-09T09:29:10;1.08;;;0.88;;
10452;SDS011;5274;51.992;8.518;2022-09-09T09:31:37;1.83;;;1.00;;
10452;SDS011;5274;51.992;8.518;2022-09-09T09:34:03;2.38;;;1.20;;
10452;SDS011;5274;51.992;8.518;2022-09-09T09:36:37;4.70;;;1.13;;
10452;SDS011;5274;51.992;8.518;2022-09-09T09:39:06;3.50;;;1.00;;
10452;SDS011;5274;51.992;8.518;2022-09-09T09:41:32;4.82;;;0.82;;
10452;SDS011;5274;51.992;8.518;2022-09-09T09:44:01;6.30;;;1.25;;
10452;SDS011;5274;51.992;8.518;2022-09-09T09:46:27;2.92;;;1.10;;
10452;SDS011;5274;51.992;8.518;2022-09-09T09:48:57;5.03;;;1.27;;
10452;SDS011;5274;51.992;8.518;2022-09-09T09:51:28;2.90;;;1.17;;
10452;SDS011;5274;51.992;8.518;2022-09-09T09:54:30;3.03;;;1.10;;
10452;SDS011;5274;51.992;8.518;2022-09-09T09:56:52;2.33;;;1.00;;
10452;SDS011;5274;51.992;8.518;2022-09-09T09:59:22;4.60;;;1.30;;
10452;SDS011;5274;51.992;8.518;2022-09-09T10:01:53;6.07;;;1.17;;
10452;SDS011;5274;51.992;8.518;2022-09-09T10:04:20;3.53;;;1.10;;
10452;SDS011;5274;51.992;8.518;2022-09-09T10:06:48;1.98;;;0.82;;
10452;SDS011;5274;51.992;8.518;2022-09-09T10:09:24;3.13;;;1.05;;
10452;SDS011;5274;51.992;8.518;2022-09-09T10:14:39;4.82;;;1.40;;
10452;SDS011;5274;51.992;8.518;2022-09-09T10:22:27;3.58;;;0.95;;
10452;SDS011;5274;51.992;8.518;2022-09-09T10:25:15;3.55;;;1.15;;
10452;SDS011;5274;51.992;8.518;2022-09-09T10:36:22;5.03;;;1.13;;
10452;SDS011;5274;51.992;8.518;2022-09-09T10:38:53;1.48;;;1.13;;
10452;SDS011;5274;51.992;8.518;2022-09-09T10:55:35;4.47;;;0.98;;
10452;SDS011;5274;51.992;8.518;2022-09-09T10:58:05;4.07;;;0.95;;
10452;SDS011;5274;51.992;8.518;2022-09-09T11:03:09;3.95;;;1.35;;
10452;SDS011;5274;51.992;8.518;2022-09-09T11:05:52;3.10;;;1.55;;
10452;SDS011;5274;51.992;8.518;2022-09-09T11:08:22;4.50;;;1.38;;
10452;SDS011;5274;51.992;8.518;2022-09-09T11:11:02;3.90;;;1.02;;
10452;SDS011;5274;51.992;8.518;2022-09-09T11:16:12;5.95;;;1.30;;
10452;SDS011;5274;51.992;8.518;2022-09-09T11:18:46;2.97;;;1.10;;
10452;SDS011;5274;51.992;8.518;2022-09-09T11:21:15;5.72;;;1.45;;
10452;SDS011;5274;51.992;8.518;2022-09-09T11:24:56;4.22;;;0.93;;
10452;SDS011;5274;51.992;8.518;2022-09-09T11:26:55;2.28;;;0.90;;
10452;SDS011;5274;51.992;8.518;2022-09-09T11:35:33;2.90;;;1.20;;
10452;SDS011;5274;51.992;8.518;2022-09-09T11:40:40;3.38;;;1.00;;
10452;SDS011;5274;51.992;8.518;2022-09-09T11:43:22;3.55;;;0.98;;
10452;SDS011;5274;51.992;8.518;2022-09-09T11:45:52;3.55;;;1.00;;
10452;SDS011;5274;51.992;8.518;2022-09-09T11:48:32;5.43;;;1.38;;
10452;SDS011;5274;51.992;8.518;2022-09-09T11:51:08;3.65;;;1.23;;
10452;SDS011;5274;51.992;8.518;2022-09-09T11:53:49;3.20;;;1.20;;
10452;SDS011;5274;51.992;8.518;2022-09-09T12:01:42;3.92;;;0.88;;
10452;SDS011;5274;51.992;8.518;2022-09-09T12:04:14;3.42;;;1.02;;
10452;SDS011;5274;51.992;8.518;2022-09-09T12:07:00;1.23;;;0.80;;
10452;SDS011;5274;51.992;8.518;2022-09-09T12:09:29;3.47;;;0.90;;
10452;SDS011;5274;51.992;8.518;2022-09-09T12:14:42;3.83;;;0.80;;
10452;SDS011;5274;51.992;8.518;2022-09-09T12:17:30;2.65;;;0.73;;
10452;SDS011;5274;51.992;8.518;2022-09-09T12:23:12;2.10;;;0.98;;
10452;SDS011;5274;51.992;8.518;2022-09-09T12:31:20;1.85;;;0.70;;
10452;SDS011;5274;51.992;8.518;2022-09-09T12:34:04;3.17;;;0.80;;
10452;SDS011;5274;51.992;8.518;2022-09-09T12:36:39;3.85;;;0.70;;
10452;SDS011;5274;51.992;8.518;2022-09-09T12:39:10;1.88;;;0.75;;
10452;SDS011;5274;51.992;8.518;2022-09-09T12:41:53;4.70;;;0.85;;
10452;SDS011;5274;51.992;8.518;2022-09-09T12:44:21;1.63;;;0.70;;
10452;SDS011;5274;51.992;8.518;2022-09-09T12:46:47;1.80;;;0.60;;
10452;SDS011;5274;51.992;8.518;2022-09-09T12:49:27;2.63;;;0.68;;
10452;SDS011;5274;51.992;8.518;2022-09-09T12:52:06;2.10;;;0.60;;
10452;SDS011;5274;51.992;8.518;2022-09-09T12:54:35;1.85;;;0.90;;
10452;SDS011;5274;51.992;8.518;2022-09-09T12:57:01;3.25;;;1.02;;
10452;SDS011;5274;51.992;8.518;2022-09-09T12:59:38;1.58;;;0.77;;
10452;SDS011;5274;51.992;8.518;2022-09-09T13:02:11;5.22;;;0.90;;
10452;SDS011;5274;51.992;8.518;2022-09-09T13:04:49;1.23;;;0.73;;
10452;SDS011;5274;51.992;8.518;2022-09-09T13:07:16;3.08;;;0.90;;
10452;SDS011;5274;51.992;8.518;2022-09-09T13:09:43;2.33;;;0.80;;
10452;SDS011;5274;51.992;8.518;2022-09-09T13:12:12;3.97;;;1.13;;
10452;SDS011;5274;51.992;8.518;2022-09-09T13:14:42;1.52;;;0.80;;
10452;SDS011;5274;51.992;8.518;2022-09-09T13:17:17;1.80;;;0.80;;
10452;SDS011;5274;51.992;8.518;2022-09-09T13:19:45;3.97;;;0.93;;
10452;SDS011;5274;51.992;8.518;2022-09-09T13:22:19;4.30;;;0.73;;
10452;SDS011;5274;51.992;8.518;2022-09-09T13:24:59;2.20;;;0.60;;
10452;SDS011;5274;51.992;8.518;2022-09-09T13:29:53;5.63;;;2.35;;
10452;SDS011;5274;51.992;8.518;2022-09-09T13:32:20;1.55;;;0.63;;
10452;SDS011;5274;51.992;8.518;2022-09-09T13:34:57;2.15;;;0.93;;
10452;SDS011;5274;51.992;8.518;2022-09-09T13:37:34;2.35;;;0.70;;
10452;SDS011;5274;51.992;8.518;2022-09-09T13:40:02;0.90;;;0.52;;
10452;SDS011;5274;51.992;8.518;2022-09-09T13:42:32;0.95;;;0.40;;
10452;SDS011;5274;51.992;8.518;2022-09-09T13:45:03;1.08;;;0.60;;
10452;SDS011;5274;51.992;8.518;2022-09-09T13:47:33;1.25;;;0.52;;
10452;SDS011;5274;51.992;8.518;2022-09-09T13:52:44;3.72;;;0.93;;
10452;SDS011;5274;51.992;8.518;2022-09-09T13:55:12;2.60;;;1.10;;
10452;SDS011;5274;51.992;8.518;2022-09-09T13:57:37;2.42;;;0.80;;
10452;SDS011;5274;51.992;8.518;2022-09-09T14:00:03;2.08;;;0.77;;
10452;SDS011;5274;51.992;8.518;2022-09-09T14:02:30;1.77;;;0.85;;
10452;SDS011;5274;51.992;8.518;2022-09-09T14:04:56;2.20;;;0.60;;
10452;SDS011;5274;51.992;8.518;2022-09-09T14:07:21;0.57;;;0.40;;
10452;SDS011;5274;51.992;8.518;2022-09-09T14:09:47;1.60;;;0.57;;
10452;SDS011;5274;51.992;8.518;2022-09-09T14:12:15;6.50;;;0.90;;
10452;SDS011;5274;51.992;8.518;2022-09-09T14:14:41;2.47;;;0.70;;
10452;SDS011;5274;51.992;8.518;2022-09-09T14:17:07;2.20;;;0.40;;
10452;SDS011;5274;51.992;8.518;2022-09-09T14:19:33;2.65;;;0.60;;
10452;SDS011;5274;51.992;8.518;2022-09-09T14:21:59;3.25;;;0.60;;
10452;SDS011;5274;51.992;8.518;2022-09-09T14:24:26;1.95;;;0.75;;
10452;SDS011;5274;51.992;8.518;2022-09-09T14:26:52;1.95;;;1.10;;
10452;SDS011;5274;51.992;8.518;2022-09-09T14:29:17;1.05;;;0.80;;
10452;SDS011;5274;51.992;8.518;2022-09-09T14:31:43;0.60;;;0.50;;
10452;SDS011;5274;51.992;8.518;2022-09-09T14:34:08;0.85;;;0.50;;
10452;SDS011;5274;51.992;8.518;2022-09-09T14:36:36;4.00;;;0.88;;
10452;SDS011;5274;51.992;8.518;2022-09-09T14:39:05;1.83;;;0.80;;
10452;SDS011;5274;51.992;8.518;2022-09-09T14:41:31;1.27;;;0.60;;
10452;SDS011;5274;51.992;8.518;2022-09-09T14:43:56;0.82;;;0.50;;
10452;SDS011;5274;51.992;8.518;2022-09-09T14:46:22;2.83;;;0.68;;
10452;SDS011;5274;51.992;8.518;2022-09-09T14:48:48;3.58;;;0.80;;
10452;SDS011;5274;51.992;8.518;2022-09-09T14:53:41;0.68;;;0.55;;
10452;SDS011;5274;51.992;8.518;2022-09-09T14:56:13;0.98;;;0.73;;
10452;SDS011;5274;51.992;8.518;2022-09-09T14:58:40;0.95;;;0.80;;
10452;SDS011;5274;51.992;8.518;2022-09-09T15:01:09;4.55;;;1.80;;
10452;SDS011;5274;51.992;8.518;2022-09-09T15:03:37;5.72;;;1.58;;
10452;SDS011;5274;51.992;8.518;2022-09-09T15:06:05;2.08;;;1.38;;
10452;SDS011;5274;51.992;8.518;2022-09-09T15:08:35;2.80;;;0.98;;
10452;SDS011;5274;51.992;8.518;2022-09-09T15:11:02;2.72;;;0.75;;
10452;SDS011;5274;51.992;8.518;2022-09-09T15:13:29;1.10;;;0.77;;
10452;SDS011;5274;51.992;8.518;2022-09-09T15:15:54;2.20;;;0.77;;
10452;SDS011;5274;51.992;8.518;2022-09-09T15:18:20;0.50;;;0.50;;
10452;SDS011;5274;51.992;8.518;2022-09-09T15:20:46;1.45;;;0.85;;
10452;SDS011;5274;51.992;8.518;2022-09-09T15:23:12;3.17;;;0.80;;
10452;SDS011;5274;51.992;8.518;2022-09-09T15:25:39;2.03;;;1.02;;
10452;SDS011;5274;51.992;8.518;2022-09-09T15:28:15;3.95;;;0.95;;
10452;SDS011;5274;51.992;8.518;2022-09-09T15:30:41;1.45;;;0.82;;
10452;SDS011;5274;51.992;8.518;2022-09-09T15:33:07;3.63;;;0.98;;
10452;SDS011;5274;51.992;8.518;2022-09-09T15:35:33;2.30;;;1.00;;
10452;SDS011;5274;51.992;8.518;2022-09-09T15:38:01;2.33;;;1.02;;
10452;SDS011;5274;51.992;8.518;2022-09-09T15:40:28;3.13;;;0.80;;
10452;SDS011;5274;51.992;8.518;2022-09-09T15:42:53;3.60;;;1.00;;
10452;SDS011;5274;51.992;8.518;2022-09-09T15:45:19;5.85;;;0.98;;
10452;SDS011;5274;51.992;8.518;2022-09-09T15:47:46;2.03;;;0.80;;
10452;SDS011;5274;51.992;8.518;2022-09-09T15:50:12;5.10;;;1.10;;
10452;SDS011;5274;51.992;8.518;2022-09-09T15:52:37;1.52;;;0.82;;
10452;SDS011;5274;51.992;8.518;2022-09-09T15:55:03;6.78;;;0.85;;
10452;SDS011;5274;51.992;8.518;2022-09-09T15:57:29;1.98;;;0.68;;
10452;SDS011;5274;51.992;8.518;2022-09-09T15:59:54;1.58;;;0.73;;
10452;SDS011;5274;51.992;8.518;2022-09-09T16:02:20;2.33;;;0.93;;
10452;SDS011;5274;51.992;8.518;2022-09-09T16:04:46;2.70;;;0.93;;
10452;SDS011;5274;51.992;8.518;2022-09-09T16:07:11;1.60;;;0.65;;
10452;SDS011;5274;51.992;8.518;2022-09-09T16:09:37;4.32;;;1.08;;
10452;SDS011;5274;51.992;8.518;2022-09-09T16:12:03;1.50;;;1.00;;
10452;SDS011;5274;51.992;8.518;2022-09-09T16:14:34;2.17;;;1.67;;
10452;SDS011;5274;51.992;8.518;2022-09-09T16:17:00;2.55;;;1.38;;
10452;SDS011;5274;51.992;8.518;2022-09-09T16:19:30;3.00;;;1.10;;
10452;SDS011;5274;51.992;8.518;2022-09-09T16:21:56;2.13;;;1.17;;
10452;SDS011;5274;51.992;8.518;2022-09-09T16:24:21;1.50;;;0.75;;
10452;SDS011;5274;51.992;8.518;2022-09-09T16:26:49;2.00;;;0.88;;
10452;SDS011;5274;51.992;8.518;2022-09-09T16:29:17;2.53;;;1.30;;
10452;SDS011;5274;51.992;8.518;2022-09-09T16:31:44;5.25;;;1.20;;
10452;SDS011;5274;51.992;8.518;2022-09-09T16:34:11;3.03;;;1.13;;
10452;SDS011;5274;51.992;8.518;2022-09-09T16:36:37;2.25;;;0.93;;
10452;SDS011;5274;51.992;8.518;2022-09-09T16:39:06;3.00;;;0.75;;
10452;SDS011;5274;51.992;8.518;2022-09-09T16:41:34;1.17;;;0.90;;
10452;SDS011;5274;51.992;8.518;2022-09-09T16:44:01;1.33;;;0.90;;
10452;SDS011;5274;51.992;8.518;2022-09-09T16:46:29;1.40;;;0.88;;
10452;SDS011;5274;51.992;8.518;2022-09-09T16:48:57;3.50;;;0.98;;
10452;SDS011;5274;51.992;8.518;2022-09-09T16:51:25;3.63;;;1.50;;
10452;SDS011;5274;51.992;8.518;2022-09-09T16:53:52;2.08;;;0.93;;
10452;SDS011;5274;51.992;8.518;2022-09-09T16:56:20;2.45;;;1.10;;
10452;SDS011;5274;51.992;8.518;2022-09-09T16:58:50;3.72;;;1.10;;
10452;SDS011;5274;51.992;8.518;2022-09-09T17:01:19;3.60;;;1.05;;
10452;SDS011;5274;51.992;8.518;2022-09-09T17:03:44;3.78;;;1.25;;
10452;SDS011;5274;51.992;8.518;2022-09-09T17:06:10;3.15;;;1.10;;
10452;SDS011;5274;51.992;8.518;2022-09-09T17:08:38;18.15;;;2.10;;